createdAt,value
2022-12-31T00:01:49.408Z,2.95
2022-12-31T00:04:16.212Z,2.90
2022-12-31T00:06:42.831Z,2.94
2022-12-31T00:09:11.059Z,2.93
2022-12-31T00:11:38.657Z,2.93
2022-12-31T00:14:06.203Z,2.88
2022-12-31T00:16:36.841Z,2.95
2022-12-31T00:19:05.360Z,2.95
2022-12-31T00:21:33.850Z,2.87
2022-12-31T00:24:01.638Z,2.96
2022-12-31T00:26:30.401Z,2.93
2022-12-31T00:28:58.284Z,2.92
2022-12-31T00:31:27.978Z,2.93
2022-12-31T00:33:56.370Z,2.89
2022-12-31T00:36:34.820Z,2.91
2022-12-31T00:39:02.741Z,2.83
2022-12-31T00:41:30.498Z,3.02
2022-12-31T00:43:57.665Z,3.00
2022-12-31T00:46:25.264Z,2.96
2022-12-31T00:48:51.945Z,2.94
2022-12-31T00:51:21.159Z,2.98
2022-12-31T00:53:47.767Z,2.92
2022-12-31T00:56:17.277Z,2.97
2022-12-31T00:58:43.932Z,2.87
2022-12-31T01:01:10.514Z,2.92
2022-12-31T01:03:37.437Z,2.98
2022-12-31T01:06:04.562Z,2.86
2022-12-31T01:08:31.172Z,2.90
2022-12-31T01:11:16.609Z,2.88
2022-12-31T01:13:43.486Z,2.89
2022-12-31T01:16:14.652Z,2.81
2022-12-31T01:18:41.727Z,2.90
2022-12-31T01:21:10.353Z,2.87
2022-12-31T01:23:39.506Z,2.92
2022-12-31T01:26:09.115Z,2.92
2022-12-31T01:28:35.782Z,2.79
2022-12-31T01:31:07.894Z,2.80
2022-12-31T01:33:35.740Z,2.89
2022-12-31T01:36:27.036Z,2.88
2022-12-31T01:38:59.830Z,3.02
2022-12-31T01:41:29.901Z,3.15
2022-12-31T01:43:59.254Z,2.90
2022-12-31T01:46:34.973Z,3.01
2022-12-31T01:49:16.973Z,2.92
2022-12-31T01:51:48.308Z,2.91
2022-12-31T01:54:18.344Z,3.00
2022-12-31T01:56:47.276Z,2.91
2022-12-31T01:59:15.794Z,3.01
2022-12-31T02:01:42.538Z,2.95
2022-12-31T02:04:13.511Z,2.90
2022-12-31T02:06:53.253Z,2.93
2022-12-31T02:09:20.208Z,2.93
2022-12-31T02:11:46.973Z,2.99
2022-12-31T02:14:26.438Z,3.01
2022-12-31T02:17:07.931Z,2.92
2022-12-31T02:19:52.442Z,2.99
2022-12-31T02:22:46.169Z,3.10
2022-12-31T02:25:40.725Z,2.99
2022-12-31T02:28:21.818Z,3.14
2022-12-31T02:30:53.844Z,3.13
2022-12-31T02:33:29.593Z,3.15
2022-12-31T02:35:59.423Z,3.10
2022-12-31T02:38:31.398Z,3.14
2022-12-31T02:40:59.022Z,3.16
2022-12-31T02:43:28.351Z,3.15
2022-12-31T02:46:23.643Z,3.27
2022-12-31T02:49:14.381Z,3.33
2022-12-31T02:52:09.454Z,3.34
2022-12-31T02:55:02.983Z,3.31
2022-12-31T02:57:58.945Z,3.23
2022-12-31T03:00:44.470Z,3.18
2022-12-31T03:03:11.975Z,3.12
2022-12-31T03:05:46.585Z,3.24
2022-12-31T03:08:22.132Z,3.29
2022-12-31T03:10:49.614Z,3.26
2022-12-31T03:13:19.332Z,3.24
2022-12-31T03:15:46.036Z,3.25
2022-12-31T03:18:18.531Z,3.26
2022-12-31T03:21:07.133Z,3.21
2022-12-31T03:23:40.107Z,3.12
2022-12-31T03:26:12.494Z,3.26
2022-12-31T03:28:47.957Z,3.19
2022-12-31T03:31:17.629Z,3.14
2022-12-31T03:33:46.703Z,3.19
2022-12-31T03:36:14.732Z,3.21
2022-12-31T03:38:41.706Z,3.11
2022-12-31T03:41:11.075Z,3.13
2022-12-31T03:43:40.143Z,3.16
2022-12-31T03:46:06.867Z,3.10
2022-12-31T03:48:36.075Z,3.18
2022-12-31T03:51:02.654Z,3.29
2022-12-31T03:53:32.149Z,3.16
2022-12-31T03:55:58.764Z,3.20
2022-12-31T03:58:25.333Z,3.13
2022-12-31T04:00:51.971Z,3.21
2022-12-31T04:03:18.663Z,3.07
2022-12-31T04:05:45.309Z,3.11
2022-12-31T04:08:11.918Z,3.13
2022-12-31T04:10:38.604Z,3.19
2022-12-31T04:13:05.196Z,3.20
2022-12-31T04:15:34.536Z,3.18
2022-12-31T04:18:01.147Z,3.14
2022-12-31T04:20:29.992Z,3.08
2022-12-31T04:22:56.653Z,2.96
2022-12-31T04:25:23.225Z,3.02
2022-12-31T04:27:49.821Z,3.10
2022-12-31T04:30:16.495Z,3.06
2022-12-31T04:32:43.168Z,3.07
2022-12-31T04:35:11.463Z,3.06
2022-12-31T04:37:38.180Z,2.97
2022-12-31T04:40:06.845Z,3.02
2022-12-31T04:42:34.738Z,3.01
2022-12-31T04:45:01.297Z,3.03
2022-12-31T04:47:27.986Z,3.10
2022-12-31T04:49:54.599Z,2.97
2022-12-31T04:52:21.582Z,3.03
2022-12-31T04:54:48.184Z,3.13
2022-12-31T04:57:14.797Z,3.27
2022-12-31T04:59:41.431Z,3.03
2022-12-31T05:02:10.375Z,3.12
2022-12-31T05:04:37.098Z,3.11
2022-12-31T05:07:03.830Z,3.09
2022-12-31T05:09:31.102Z,3.12
2022-12-31T05:11:57.871Z,3.07
2022-12-31T05:14:24.537Z,2.97
2022-12-31T05:16:52.391Z,2.99
2022-12-31T05:19:18.999Z,3.15
2022-12-31T05:22:08.523Z,3.21
2022-12-31T05:24:37.394Z,3.10
2022-12-31T05:27:09.327Z,3.14
2022-12-31T05:29:35.917Z,3.01
2022-12-31T05:32:02.516Z,3.12
2022-12-31T05:34:29.124Z,3.11
2022-12-31T05:36:55.682Z,3.14
2022-12-31T05:39:22.252Z,3.13
2022-12-31T05:41:48.804Z,3.28
2022-12-31T05:44:18.373Z,3.16
2022-12-31T05:46:44.952Z,3.21
2022-12-31T05:49:11.505Z,3.18
2022-12-31T05:51:38.237Z,3.17
2022-12-31T05:54:04.895Z,3.22
2022-12-31T05:56:31.614Z,3.18
2022-12-31T05:58:58.181Z,3.26
2022-12-31T06:01:24.870Z,3.09
2022-12-31T06:03:51.540Z,2.97
2022-12-31T06:06:18.204Z,2.96
2022-12-31T06:08:44.773Z,3.06
2022-12-31T06:11:11.324Z,3.09
2022-12-31T06:13:37.994Z,3.00
2022-12-31T06:16:09.007Z,3.07
2022-12-31T06:18:35.913Z,3.02
2022-12-31T06:21:04.970Z,2.99
2022-12-31T06:23:32.056Z,2.87
2022-12-31T06:26:02.901Z,2.89
2022-12-31T06:28:29.472Z,2.96
2022-12-31T06:31:00.243Z,2.96
2022-12-31T06:33:27.142Z,2.94
2022-12-31T06:36:00.251Z,2.96
2022-12-31T06:38:28.328Z,2.95
2022-12-31T06:40:54.954Z,3.07
2022-12-31T06:43:22.148Z,2.93
2022-12-31T06:45:49.095Z,3.07
2022-12-31T06:48:15.680Z,3.06
2022-12-31T06:50:44.727Z,3.25
2022-12-31T06:53:11.404Z,3.16
2022-12-31T06:55:38.294Z,3.11
2022-12-31T06:58:13.443Z,3.32
2022-12-31T07:01:03.840Z,3.22
2022-12-31T07:03:38.422Z,3.14
2022-12-31T07:06:30.317Z,3.01
2022-12-31T07:09:14.405Z,3.11
2022-12-31T07:12:11.052Z,3.18
2022-12-31T07:14:54.871Z,3.15
2022-12-31T07:17:41.236Z,3.20
2022-12-31T07:20:13.970Z,3.14
2022-12-31T07:22:41.203Z,3.18
2022-12-31T07:25:08.549Z,3.14
2022-12-31T07:28:04.451Z,3.24
2022-12-31T07:30:53.893Z,3.44
2022-12-31T07:33:55.267Z,3.58
2022-12-31T07:36:42.103Z,3.52
2022-12-31T07:39:16.465Z,3.32
2022-12-31T07:42:04.304Z,3.55
2022-12-31T07:44:48.027Z,3.56
2022-12-31T07:47:21.938Z,3.85
2022-12-31T07:49:49.119Z,4.14
2022-12-31T07:52:16.079Z,4.32
2022-12-31T07:54:42.862Z,4.58
2022-12-31T07:57:14.304Z,4.46
2022-12-31T07:59:58.826Z,4.38
2022-12-31T08:02:47.220Z,4.17
2022-12-31T08:05:52.340Z,4.05
2022-12-31T08:08:35.604Z,4.23
2022-12-31T08:11:17.247Z,4.24
2022-12-31T08:13:44.099Z,3.92
2022-12-31T08:16:14.192Z,4.01
2022-12-31T08:18:41.406Z,4.18
2022-12-31T08:21:50.944Z,4.35
2022-12-31T08:24:28.017Z,4.41
2022-12-31T08:26:57.605Z,4.75
2022-12-31T08:29:24.129Z,4.86
2022-12-31T08:32:28.619Z,5.00
2022-12-31T08:35:32.189Z,5.55
2022-12-31T08:38:45.560Z,5.65
2022-12-31T08:41:43.079Z,5.36
2022-12-31T08:44:34.713Z,5.35
2022-12-31T08:47:17.940Z,5.90
2022-12-31T08:49:44.849Z,6.43
2022-12-31T08:52:25.310Z,6.28
2022-12-31T08:54:53.149Z,6.51
2022-12-31T08:57:33.681Z,6.49
2022-12-31T09:00:17.103Z,7.28
2022-12-31T09:02:55.871Z,7.64
2022-12-31T09:05:52.985Z,6.91
2022-12-31T09:08:33.366Z,7.72
2022-12-31T09:11:39.663Z,7.85
2022-12-31T09:14:27.852Z,8.21
2022-12-31T09:17:08.833Z,9.05
2022-12-31T09:19:38.385Z,7.68
2022-12-31T09:22:05.198Z,7.86
2022-12-31T09:24:32.143Z,7.86
2022-12-31T09:27:11.460Z,7.78
2022-12-31T09:29:38.811Z,7.66
2022-12-31T09:32:21.274Z,7.46
2022-12-31T09:35:07.520Z,7.40
2022-12-31T09:37:58.463Z,7.81
2022-12-31T09:40:46.089Z,7.63
2022-12-31T09:43:27.889Z,7.92
2022-12-31T09:46:19.377Z,8.07
2022-12-31T09:49:27.476Z,8.18
2022-12-31T09:52:28.117Z,7.61
2022-12-31T09:55:14.482Z,6.34
2022-12-31T09:58:12.904Z,7.12
2022-12-31T10:00:48.312Z,7.13
2022-12-31T10:03:39.882Z,7.15
2022-12-31T10:06:15.642Z,6.87
2022-12-31T10:09:19.949Z,6.88
2022-12-31T10:12:08.513Z,6.79
2022-12-31T10:14:46.956Z,7.41
2022-12-31T10:17:39.598Z,7.40
2022-12-31T10:20:14.538Z,6.86
2022-12-31T10:22:41.050Z,7.20
2022-12-31T10:25:38.163Z,7.35
2022-12-31T10:28:35.859Z,7.14
2022-12-31T10:31:30.323Z,7.50
2022-12-31T10:34:17.574Z,7.96
2022-12-31T10:37:17.803Z,7.95
2022-12-31T10:39:58.364Z,8.03
2022-12-31T10:42:43.698Z,7.50
2022-12-31T10:45:48.135Z,7.21
2022-12-31T10:48:40.960Z,7.27
2022-12-31T10:51:26.363Z,7.24
2022-12-31T10:54:44.349Z,7.32
2022-12-31T10:57:51.003Z,6.98
2022-12-31T11:00:22.350Z,7.24
2022-12-31T11:03:29.517Z,6.79
2022-12-31T11:06:24.489Z,6.93
2022-12-31T11:09:07.473Z,7.08
2022-12-31T11:11:44.984Z,7.33
2022-12-31T11:14:32.707Z,6.66
2022-12-31T11:17:26.974Z,6.87
2022-12-31T11:20:05.229Z,7.04
2022-12-31T11:22:54.267Z,7.01
2022-12-31T11:25:52.318Z,7.28
2022-12-31T11:28:40.221Z,7.15
2022-12-31T11:31:07.121Z,6.98
2022-12-31T11:33:41.223Z,6.89
2022-12-31T11:36:19.813Z,6.91
2022-12-31T11:38:56.824Z,7.10
2022-12-31T11:41:23.647Z,6.98
2022-12-31T11:43:56.118Z,7.05
2022-12-31T11:46:54.004Z,7.08
2022-12-31T11:49:44.464Z,6.89
2022-12-31T11:52:21.146Z,7.15
2022-12-31T11:55:03.724Z,6.91
2022-12-31T11:57:30.287Z,6.71
2022-12-31T12:00:20.755Z,7.07
2022-12-31T12:02:58.609Z,7.25
2022-12-31T12:05:26.655Z,7.20
2022-12-31T12:07:56.504Z,6.84
2022-12-31T12:10:36.623Z,7.01
2022-12-31T12:13:12.715Z,7.51
2022-12-31T12:15:42.379Z,7.47
2022-12-31T12:18:14.277Z,7.49
2022-12-31T12:20:46.251Z,8.00
2022-12-31T12:23:16.745Z,7.91
2022-12-31T12:25:44.145Z,7.66
2022-12-31T12:28:24.728Z,7.40
2022-12-31T12:31:04.993Z,7.98
2022-12-31T12:33:45.385Z,7.58
2022-12-31T12:36:14.701Z,7.66
2022-12-31T12:38:42.412Z,7.41
2022-12-31T12:41:20.470Z,7.27
2022-12-31T12:43:47.457Z,8.23
2022-12-31T12:46:20.125Z,7.96
2022-12-31T12:48:49.587Z,8.13
2022-12-31T12:51:48.471Z,8.24
2022-12-31T12:54:38.320Z,8.67
2022-12-31T12:57:23.092Z,9.07
2022-12-31T13:00:08.037Z,8.20
2022-12-31T13:03:02.358Z,7.51
2022-12-31T13:06:08.262Z,7.60
2022-12-31T13:08:43.735Z,8.04
2022-12-31T13:11:27.320Z,7.80
2022-12-31T13:13:56.935Z,7.76
2022-12-31T13:16:35.872Z,7.64
2022-12-31T13:19:06.238Z,7.50
2022-12-31T13:21:50.686Z,7.41
2022-12-31T13:24:52.789Z,7.60
2022-12-31T13:27:28.996Z,8.21
2022-12-31T13:30:01.212Z,7.56
2022-12-31T13:32:38.107Z,7.71
2022-12-31T13:35:22.171Z,7.91
2022-12-31T13:37:49.952Z,7.75
2022-12-31T13:40:47.704Z,7.59
2022-12-31T13:43:34.462Z,7.89
2022-12-31T13:46:17.676Z,7.62
2022-12-31T13:48:53.446Z,7.82
2022-12-31T13:51:46.540Z,7.87
2022-12-31T13:54:15.797Z,7.46
2022-12-31T13:56:44.280Z,7.78
2022-12-31T13:59:23.852Z,7.71
2022-12-31T14:02:04.745Z,7.66
2022-12-31T14:04:40.229Z,7.65
2022-12-31T14:07:12.062Z,7.79
2022-12-31T14:09:38.645Z,7.62
2022-12-31T14:12:39.363Z,7.62
2022-12-31T14:15:34.040Z,7.65
2022-12-31T14:18:06.989Z,7.34
2022-12-31T14:20:33.568Z,7.54
2022-12-31T14:23:13.527Z,7.63
2022-12-31T14:25:43.537Z,7.54
2022-12-31T14:28:19.523Z,7.55
2022-12-31T14:30:50.910Z,7.48
2022-12-31T14:33:17.412Z,7.41
2022-12-31T14:36:22.243Z,7.65
2022-12-31T14:39:06.414Z,7.83
2022-12-31T14:42:04.140Z,7.65
2022-12-31T14:44:50.983Z,7.65
2022-12-31T14:47:56.719Z,7.59
2022-12-31T14:50:28.383Z,7.45
2022-12-31T14:53:07.091Z,7.45
2022-12-31T14:55:36.771Z,7.26
2022-12-31T14:58:28.788Z,7.33
2022-12-31T15:01:04.852Z,7.21
2022-12-31T15:03:31.463Z,7.02
2022-12-31T15:06:22.310Z,6.89
2022-12-31T15:09:25.725Z,6.92
2022-12-31T15:12:22.029Z,6.88
2022-12-31T15:15:16.516Z,6.68
2022-12-31T15:17:55.178Z,6.55
2022-12-31T15:20:28.242Z,6.33
2022-12-31T15:22:55.206Z,6.09
2022-12-31T15:25:27.699Z,6.04
2022-12-31T15:27:56.384Z,6.00
2022-12-31T15:30:30.495Z,5.93
2022-12-31T15:33:01.899Z,5.65
2022-12-31T15:35:53.147Z,5.65
2022-12-31T15:38:32.088Z,5.78
2022-12-31T15:40:59.719Z,5.82
2022-12-31T15:43:35.624Z,5.94
2022-12-31T15:46:10.256Z,6.15
2022-12-31T15:48:45.587Z,6.23
2022-12-31T15:51:20.456Z,6.20
2022-12-31T15:53:53.135Z,6.29
2022-12-31T15:56:48.466Z,6.18
2022-12-31T15:59:18.457Z,6.17
2022-12-31T16:01:46.005Z,6.08
2022-12-31T16:04:24.349Z,6.16
2022-12-31T16:06:52.429Z,6.12
2022-12-31T16:09:25.739Z,6.13
2022-12-31T16:11:54.877Z,6.13
2022-12-31T16:14:25.159Z,6.11
2022-12-31T16:17:00.297Z,6.14
2022-12-31T16:19:46.244Z,6.00
2022-12-31T16:22:26.226Z,5.81
2022-12-31T16:25:29.656Z,5.81
2022-12-31T16:27:49.839Z,5.77
2022-12-31T16:30:27.197Z,5.70
2022-12-31T16:32:57.751Z,5.64
2022-12-31T16:35:24.335Z,5.41
2022-12-31T16:38:15.917Z,5.38
2022-12-31T16:41:02.037Z,5.26
2022-12-31T16:43:40.173Z,5.00
2022-12-31T16:46:11.754Z,4.89
2022-12-31T16:48:38.830Z,4.68
2022-12-31T16:51:06.474Z,4.82
2022-12-31T16:53:37.935Z,4.56
2022-12-31T16:56:09.104Z,4.40
2022-12-31T16:58:45.249Z,4.29
2022-12-31T17:01:25.235Z,4.41
2022-12-31T17:04:03.275Z,4.07
2022-12-31T17:06:33.388Z,4.01
2022-12-31T17:09:14.511Z,4.04
2022-12-31T17:11:52.518Z,4.01
2022-12-31T17:14:23.214Z,3.75
2022-12-31T17:17:03.201Z,3.84
2022-12-31T17:19:33.108Z,4.07
2022-12-31T17:22:00.053Z,4.38
2022-12-31T17:24:27.298Z,4.46
2022-12-31T17:26:53.902Z,4.29
2022-12-31T17:29:26.199Z,3.99
2022-12-31T17:32:36.020Z,3.91
2022-12-31T17:35:03.256Z,3.82
2022-12-31T17:37:32.303Z,3.87
2022-12-31T17:40:49.738Z,4.12
2022-12-31T17:42:49.244Z,4.04
2022-12-31T17:45:20.266Z,4.07
2022-12-31T17:47:52.490Z,4.04
2022-12-31T17:50:23.481Z,4.07
2022-12-31T17:52:50.131Z,4.00
2022-12-31T17:55:16.794Z,4.09
2022-12-31T17:57:54.184Z,4.05
2022-12-31T18:00:24.237Z,3.98
2022-12-31T18:02:51.018Z,3.91
2022-12-31T18:05:26.753Z,3.91
2022-12-31T18:07:55.798Z,4.01
2022-12-31T18:10:24.811Z,4.08
2022-12-31T18:12:58.871Z,4.16
2022-12-31T18:15:25.503Z,4.18
2022-12-31T18:17:52.118Z,4.05
2022-12-31T18:20:18.883Z,3.94
2022-12-31T18:22:45.934Z,3.82
2022-12-31T18:25:23.464Z,3.67
2022-12-31T18:27:51.733Z,3.68
2022-12-31T18:30:18.815Z,3.66
2022-12-31T18:32:46.635Z,3.77
2022-12-31T18:36:06.578Z,3.86
2022-12-31T18:38:12.214Z,3.87
2022-12-31T18:40:44.442Z,3.83
2022-12-31T18:43:18.990Z,3.87
2022-12-31T18:45:47.219Z,3.84
2022-12-31T18:48:14.155Z,3.76
2022-12-31T18:50:41.365Z,3.64
2022-12-31T18:53:15.393Z,3.63
2022-12-31T18:55:46.765Z,3.60
2022-12-31T18:58:13.674Z,3.74
2022-12-31T19:00:40.463Z,3.70
2022-12-31T19:03:07.091Z,3.74
2022-12-31T19:05:37.404Z,3.82
2022-12-31T19:08:04.235Z,3.82
2022-12-31T19:10:30.923Z,3.84
2022-12-31T19:12:57.491Z,3.86
2022-12-31T19:15:34.400Z,3.89
2022-12-31T19:18:02.694Z,3.89
2022-12-31T19:20:30.255Z,3.88
2022-12-31T19:22:57.543Z,3.88
2022-12-31T19:25:27.247Z,3.83
2022-12-31T19:27:54.251Z,3.86
2022-12-31T19:30:26.705Z,3.77
2022-12-31T19:32:54.515Z,3.66
2022-12-31T19:35:22.949Z,3.61
2022-12-31T19:37:51.340Z,3.54
2022-12-31T19:40:29.290Z,3.49
2022-12-31T19:42:56.642Z,3.31
2022-12-31T19:45:29.241Z,3.25
2022-12-31T19:47:57.070Z,3.28
2022-12-31T19:50:26.663Z,3.20
2022-12-31T19:52:56.585Z,3.10
2022-12-31T19:55:26.279Z,3.03
2022-12-31T19:57:53.068Z,3.05
2022-12-31T20:00:20.898Z,3.04
2022-12-31T20:02:48.778Z,2.91
2022-12-31T20:05:17.202Z,2.89
2022-12-31T20:07:43.796Z,2.71
2022-12-31T20:10:10.997Z,2.82
2022-12-31T20:12:44.147Z,2.81
2022-12-31T20:15:11.480Z,2.72
2022-12-31T20:17:38.243Z,2.53
2022-12-31T20:20:08.769Z,2.54
2022-12-31T20:22:35.270Z,2.65
2022-12-31T20:25:01.979Z,2.75
2022-12-31T20:27:28.701Z,2.66
2022-12-31T20:29:55.275Z,3.13
2022-12-31T20:32:26.397Z,2.87
2022-12-31T20:34:52.989Z,2.94
2022-12-31T20:37:19.542Z,2.93
2022-12-31T20:39:46.113Z,3.14
2022-12-31T20:42:12.736Z,3.09
2022-12-31T20:44:39.408Z,2.98
2022-12-31T20:47:08.936Z,3.10
2022-12-31T20:50:09.906Z,3.43
2022-12-31T20:52:22.068Z,3.49
2022-12-31T20:54:48.672Z,3.34
2022-12-31T20:57:16.376Z,3.36
2022-12-31T20:59:42.950Z,3.42
2022-12-31T21:02:39.293Z,3.34
2022-12-31T21:05:02.726Z,3.65
2022-12-31T21:07:30.180Z,3.32
2022-12-31T21:09:56.748Z,3.26
2022-12-31T21:12:41.790Z,3.63
2022-12-31T21:15:08.838Z,3.38
2022-12-31T21:17:35.435Z,3.36
2022-12-31T21:20:02.036Z,3.53
2022-12-31T21:22:30.079Z,3.39
2022-12-31T21:24:56.625Z,3.63
2022-12-31T21:27:24.566Z,3.46
2022-12-31T21:30:17.678Z,3.24
2022-12-31T21:32:37.834Z,3.32
2022-12-31T21:35:41.112Z,3.30
2022-12-31T21:37:58.196Z,3.12
2022-12-31T21:40:26.953Z,3.09
2022-12-31T21:42:53.522Z,2.90
2022-12-31T21:45:20.087Z,2.87
2022-12-31T21:48:05.516Z,2.83
2022-12-31T21:50:33.270Z,2.76
2022-12-31T21:52:59.950Z,2.82
2022-12-31T21:55:45.603Z,2.71
2022-12-31T21:58:28.397Z,2.77
2022-12-31T22:01:15.244Z,2.89
2022-12-31T22:03:42.666Z,2.67
2022-12-31T22:06:13.577Z,2.58
2022-12-31T22:08:42.727Z,2.52
2022-12-31T22:11:10.373Z,2.62
2022-12-31T22:13:37.612Z,2.55
2022-12-31T22:16:06.061Z,2.46
2022-12-31T22:18:38.550Z,2.51
2022-12-31T22:21:26.672Z,2.45
2022-12-31T22:23:55.860Z,2.27
2022-12-31T22:26:25.114Z,2.19
2022-12-31T22:28:52.398Z,2.09
2022-12-31T22:31:22.723Z,2.03
2022-12-31T22:33:49.365Z,2.08
2022-12-31T22:36:18.895Z,2.08
2022-12-31T22:38:45.833Z,1.93
2022-12-31T22:41:18.108Z,1.85
2022-12-31T22:43:47.335Z,2.07
2022-12-31T22:46:22.892Z,1.87
2022-12-31T22:48:50.188Z,1.79
2022-12-31T22:51:17.277Z,1.76
2022-12-31T22:53:44.232Z,1.72
2022-12-31T22:56:13.964Z,1.74
2022-12-31T22:58:40.976Z,1.68
2022-12-31T23:01:15.663Z,1.54
2022-12-31T23:03:42.551Z,1.55
2022-12-31T23:06:10.454Z,1.76
2022-12-31T23:08:37.130Z,1.71
2022-12-31T23:11:06.010Z,1.67
2022-12-31T23:13:59.125Z,1.61
2022-12-31T23:16:47.727Z,1.55
2022-12-31T23:19:34.310Z,1.65
2022-12-31T23:22:20.061Z,1.54
2022-12-31T23:24:46.625Z,1.48
2022-12-31T23:27:13.425Z,1.46
2022-12-31T23:29:46.703Z,1.42
2022-12-31T23:32:15.967Z,1.46
2022-12-31T23:34:44.573Z,1.28
2022-12-31T23:37:12.360Z,1.25
2022-12-31T23:39:39.139Z,1.15
2022-12-31T23:42:05.870Z,1.17
2022-12-31T23:44:32.467Z,1.24
2022-12-31T23:46:59.167Z,1.17
2022-12-31T23:49:25.859Z,1.21
2022-12-31T23:51:52.572Z,1.09
2022-12-31T23:54:19.152Z,1.21
2022-12-31T23:56:45.798Z,1.02
2022-12-31T23:59:13.197Z,1.05
